Milford, Massachusetts
Current Conditions -  °F | °C
As of 7:55 PM on Wednesday 22 Oct 2014 (Local Time) from KSFZ Reporting Station
Overcast Overcast  
Wind Chill: 52°   Ceiling: 600
Heat Index: 52°   Visibility: 4mi
Dew Point: 43°   Wind: 26mph
Humidity: 71%   Direction: 30°NNE
Pressure: 29.78"   Gusts: 35mph
Location:  42.14°N, 71.52°W
Report Text: KSFZ 222355Z 03023G30KT 4SM BKN006 OVC013 11/06 A2978 RMK AO1 P0003 60012 10110 20090 401300090 57027
Loading
Personal Weather Stations






























Interactive Weather Map
Tropical Storm Tracking
New forecast layout! Learn more

10-Day Weather Forecast

Advertisements
Track Severe Weather on mobile